createdAt,value
2019-02-16T22:13:57.165Z,160.63
2019-02-16T22:15:29.030Z,157.65
2019-02-16T22:17:00.938Z,164.03
2019-02-16T22:18:33.110Z,151.05
2019-02-16T22:20:04.998Z,115.52
2019-02-16T22:21:36.911Z,92.00
2019-02-16T22:23:08.786Z,94.65
2019-02-16T22:24:41.011Z,72.37
2019-02-16T22:26:12.899Z,57.67
2019-02-16T22:27:44.807Z,56.13
2019-02-16T22:29:16.703Z,64.75
2019-02-16T22:30:48.445Z,67.17
2019-02-16T22:32:19.731Z,59.47
2019-02-16T22:33:51.310Z,60.63
2019-02-16T22:35:22.592Z,98.60
2019-02-16T22:36:53.888Z,89.37
2019-02-16T22:38:25.186Z,81.77
2019-02-16T22:39:56.790Z,78.87
2019-02-16T22:41:28.076Z,76.07
2019-02-16T22:42:59.378Z,73.73
2019-02-16T22:44:30.699Z,69.97
2019-02-16T22:46:02.268Z,61.93
2019-02-16T22:47:33.554Z,61.07
2019-02-16T22:49:04.872Z,55.33
2019-02-16T22:50:36.155Z,51.10
2019-02-16T22:52:07.647Z,55.07
2019-02-16T22:53:38.966Z,52.87
2019-02-16T22:55:10.262Z,52.33
2019-02-16T22:56:41.558Z,54.87
2019-02-16T22:58:13.222Z,53.00
2019-02-16T22:59:44.507Z,52.67
2019-02-16T23:01:15.787Z,51.63
2019-02-16T23:02:47.115Z,46.80
2019-02-16T23:04:18.653Z,51.03
2019-02-16T23:05:49.959Z,51.97
2019-02-16T23:07:21.249Z,56.87
2019-02-16T23:08:52.576Z,56.00
2019-02-16T23:10:24.045Z,59.47
2019-02-16T23:11:55.347Z,72.60
2019-02-16T23:13:26.636Z,56.70
2019-02-16T23:14:57.947Z,52.77
2019-02-16T23:16:29.692Z,45.40
2019-02-16T23:18:00.982Z,46.43
2019-02-16T23:19:32.273Z,45.13
2019-02-16T23:21:03.572Z,46.37
2019-02-16T23:22:35.161Z,44.57
2019-02-16T23:24:06.449Z,47.83
2019-02-16T23:25:37.748Z,46.67
2019-02-16T23:27:09.063Z,45.50
2019-02-16T23:28:40.751Z,42.80
2019-02-16T23:30:12.053Z,37.13
2019-02-16T23:31:43.361Z,46.47
2019-02-16T23:33:14.677Z,42.57
2019-02-16T23:34:46.086Z,36.90
2019-02-16T23:36:17.388Z,36.67
2019-02-16T23:37:48.679Z,44.47
2019-02-16T23:39:19.998Z,51.00
2019-02-16T23:40:51.670Z,49.87
2019-02-16T23:42:22.953Z,44.00
2019-02-16T23:43:54.239Z,42.10
2019-02-16T23:45:25.570Z,47.60
2019-02-16T23:46:57.019Z,45.07
2019-02-16T23:48:28.372Z,46.93
2019-02-16T23:50:00.020Z,58.23
2019-02-16T23:51:31.308Z,53.83
2019-02-16T23:53:02.643Z,48.43
2019-02-16T23:54:33.957Z,51.40
2019-02-16T23:56:05.583Z,49.27
2019-02-16T23:57:36.943Z,44.30
2019-02-16T23:59:08.858Z,44.55
